Time;durP1;ratioP1;P1;durP2;ratioP2;P2;SDS_P1;SDS_P2;PMS_P1;PMS_P2;Temp;Humidity;BMP_temperature;BMP_pressure;BME280_temperature;BME280_humidity;BME280_pressure;Samples;Min_cycle;Max_cycle;Signal;HPM_P1;HPM_P2
2023/05/05 00:01:59;;;;;;;4.97;3.70;;;15.80;99.90;;;;;;5059154;28;20037;-66
2023/05/05 00:04:25;;;;;;;5.38;3.92;;;15.60;99.90;;;;;;5058883;28;20436;-65
2023/05/05 00:06:51;;;;;;;7.45;4.40;;;15.50;99.90;;;;;;5059914;28;20381;-65
2023/05/05 00:09:17;;;;;;;8.23;4.10;;;15.50;99.90;;;;;;5059153;28;20307;-65
2023/05/05 00:11:43;;;;;;;4.68;3.55;;;15.50;99.90;;;;;;5059922;28;20041;-65
2023/05/05 00:14:08;;;;;;;6.50;4.53;;;15.40;99.90;;;;;;5059741;28;20351;-65
2023/05/05 00:16:34;;;;;;;5.72;4.00;;;15.10;99.90;;;;;;5059841;28;20041;-65
2023/05/05 00:19:00;;;;;;;7.82;5.03;;;14.90;99.90;;;;;;5059715;28;20033;-64
2023/05/05 00:21:28;;;;;;;6.95;4.68;;;14.80;99.90;;;;;;5058891;28;20151;-63
2023/05/05 00:23:54;;;;;;;6.75;5.50;;;14.80;99.90;;;;;;5059567;28;20337;-64
2023/05/05 00:26:20;;;;;;;6.55;5.53;;;14.80;99.90;;;;;;5060104;28;20037;-64
2023/05/05 00:28:49;;;;;;;7.30;6.60;;;15.00;99.90;;;;;;5058785;28;20029;-64
2023/05/05 00:31:15;;;;;;;10.32;6.45;;;15.10;99.90;;;;;;5058804;28;20040;-64
2023/05/05 00:33:41;;;;;;;8.73;6.88;;;15.10;99.90;;;;;;5059363;28;20300;-63
2023/05/05 00:36:08;;;;;;;8.73;6.35;;;15.20;99.90;;;;;;5059425;28;20396;-64
2023/05/05 00:38:34;;;;;;;7.45;6.75;;;15.10;99.90;;;;;;5058768;28;20041;-64
2023/05/05 00:40:59;;;;;;;7.35;6.68;;;15.10;99.90;;;;;;5059912;28;20360;-63
2023/05/05 00:43:26;;;;;;;8.52;6.93;;;15.00;99.90;;;;;;5059193;28;20072;-65
2023/05/05 00:46:00;;;;;;;7.72;6.80;;;14.90;99.90;;;;;;5059233;28;20304;-64
2023/05/05 00:48:29;;;;;;;7.75;6.38;;;14.80;99.90;;;;;;5059161;28;20404;-65
2023/05/05 00:50:55;;;;;;;7.47;6.68;;;14.60;99.90;;;;;;5059204;28;20392;-65
2023/05/05 00:53:21;;;;;;;7.82;6.25;;;14.50;99.90;;;;;;5058995;28;20058;-64
2023/05/05 00:55:47;;;;;;;10.80;7.35;;;14.50;99.90;;;;;;5059592;28;20384;-64
2023/05/05 00:58:13;;;;;;;8.90;7.85;;;14.70;99.90;;;;;;5058945;28;20036;-64
2023/05/05 01:00:39;;;;;;;10.25;8.68;;;14.70;99.90;;;;;;5058293;28;20044;-65
2023/05/05 01:03:05;;;;;;;9.48;8.48;;;14.60;99.90;;;;;;5058729;28;20397;-65
2023/05/05 01:06:00;;;;;;;13.48;8.23;;;14.40;99.90;;;;;;5058913;28;20110;-65
2023/05/05 01:08:51;;;;;;;10.02;7.85;;;14.30;99.90;;;;;;5058970;28;20032;-65
2023/05/05 01:11:45;;;;;;;12.50;9.43;;;14.30;99.90;;;;;;5057535;28;20040;-65
2023/05/05 01:14:18;;;;;;;10.32;9.32;;;14.40;99.90;;;;;;5058225;28;20043;-66
2023/05/05 01:17:07;;;;;;;12.63;10.73;;;14.50;99.90;;;;;;5057889;28;20025;-66
2023/05/05 01:19:52;;;;;;;13.70;11.00;;;14.60;99.90;;;;;;5057852;28;20465;-66
2023/05/05 01:22:25;;;;;;;16.92;11.95;;;14.50;99.90;;;;;;5058450;28;20055;-66
2023/05/05 01:25:10;;;;;;;13.85;11.35;;;14.50;99.90;;;;;;5058580;28;20033;-66
2023/05/05 01:28:15;;;;;;;12.35;11.13;;;14.40;99.90;;;;;;5057850;28;20308;-67
2023/05/05 01:30:52;;;;;;;12.57;11.27;;;14.30;99.90;;;;;;5059293;28;20393;-67
2023/05/05 01:33:27;;;;;;;17.40;12.93;;;14.30;99.90;;;;;;5057533;28;20094;-67
2023/05/05 01:35:57;;;;;;;15.63;12.93;;;14.30;99.90;;;;;;5057547;28;20054;-68
2023/05/05 01:38:35;;;;;;;14.75;13.18;;;14.20;99.90;;;;;;5058139;28;20406;-68
2023/05/05 01:41:12;;;;;;;16.00;13.25;;;14.20;99.90;;;;;;5058294;28;20021;-68
2023/05/05 01:43:42;;;;;;;16.23;14.60;;;14.10;99.90;;;;;;5058356;28;20025;-68
2023/05/05 01:46:09;;;;;;;17.75;15.93;;;14.10;99.90;;;;;;5058114;28;20150;-68
2023/05/05 01:48:36;;;;;;;17.58;15.88;;;14.00;99.90;;;;;;5024418;28;20304;-69
2023/05/05 01:51:03;;;;;;;18.70;16.20;;;14.00;99.90;;;;;;5057195;28;20438;-69
2023/05/05 01:53:31;;;;;;;19.17;17.17;;;14.10;99.90;;;;;;5040916;28;20123;-69
2023/05/05 01:55:57;;;;;;;18.50;16.35;;;14.10;99.90;;;;;;5040524;28;20044;-69
2023/05/05 01:58:25;;;;;;;15.80;14.18;;;14.00;99.90;;;;;;5057078;28;20028;-70
2023/05/05 02:00:53;;;;;;;16.17;13.95;;;14.00;99.90;;;;;;5057151;28;20029;-70
2023/05/05 02:03:21;;;;;;;15.50;13.85;;;13.90;99.90;;;;;;5057819;28;20037;-70
2023/05/05 02:05:48;;;;;;;15.75;14.15;;;13.90;99.90;;;;;;5056946;28;20041;-71
2023/05/05 02:08:15;;;;;;;15.05;13.45;;;13.90;99.90;;;;;;5056906;28;20312;-70
2023/05/05 02:10:43;;;;;;;14.18;11.68;;;13.90;99.90;;;;;;5057714;28;20315;-70
2023/05/05 02:13:11;;;;;;;12.20;11.00;;;13.90;99.90;;;;;;5057539;28;20388;-70
2023/05/05 02:15:39;;;;;;;12.65;11.35;;;13.80;99.90;;;;;;5057636;28;20045;-71
2023/05/05 02:18:06;;;;;;;12.52;11.23;;;13.60;99.90;;;;;;5057474;28;20048;-71
2023/05/05 02:20:32;;;;;;;12.55;11.20;;;13.70;99.90;;;;;;5056845;28;20350;-71
2023/05/05 02:22:58;;;;;;;12.25;11.07;;;13.70;99.90;;;;;;5040186;28;20024;-71
2023/05/05 02:25:34;;;;;;;12.90;11.43;;;13.80;99.90;;;;;;5057455;28;20036;-71
2023/05/05 02:28:01;;;;;;;13.63;11.15;;;13.80;99.90;;;;;;5057499;28;20085;-71
2023/05/05 02:30:31;;;;;;;12.07;10.27;;;13.90;99.90;;;;;;5057373;28;20083;-71
2023/05/05 02:33:08;;;;;;;10.90;9.80;;;13.80;99.90;;;;;;5057298;28;20351;-72
2023/05/05 02:35:39;;;;;;;12.65;10.32;;;13.80;99.90;;;;;;5056352;28;20029;-72
2023/05/05 02:38:16;;;;;;;9.85;8.90;;;13.70;99.90;;;;;;5056548;28;20035;-71
2023/05/05 02:40:46;;;;;;;12.27;9.30;;;13.60;99.90;;;;;;5056654;28;20292;-72
2023/05/05 02:43:18;;;;;;;9.40;8.50;;;13.60;99.90;;;;;;5057097;28;20025;-72
2023/05/05 02:45:45;;;;;;;10.50;9.30;;;13.60;99.90;;;;;;5057723;28;20047;-72
2023/05/05 02:48:11;;;;;;;9.73;8.82;;;13.60;99.90;;;;;;5039737;28;20396;-72
2023/05/05 02:50:38;;;;;;;12.57;9.27;;;13.60;99.90;;;;;;5056226;28;20127;-72
2023/05/05 02:53:26;;;;;;;11.73;10.30;;;13.60;99.90;;;;;;5056361;28;20281;-72
2023/05/05 02:56:05;;;;;;;11.30;10.20;;;13.60;99.90;;;;;;5056116;28;20083;-72
2023/05/05 02:58:50;;;;;;;11.05;9.88;;;13.60;99.90;;;;;;5056275;28;20032;-72
2023/05/05 03:01:36;;;;;;;13.65;10.70;;;13.60;99.90;;;;;;5055941;28;20048;-72
2023/05/05 03:04:12;;;;;;;12.68;11.38;;;13.60;99.90;;;;;;5055806;28;20052;-72
2023/05/05 03:06:48;;;;;;;11.93;10.63;;;13.60;99.90;;;;;;5056261;28;20029;-72
2023/05/05 03:09:18;;;;;;;12.60;11.00;;;13.50;99.90;;;;;;5056200;28;20025;-72
2023/05/05 03:11:58;;;;;;;13.32;11.88;;;13.50;99.90;;;;;;5056105;28;20036;-72
2023/05/05 03:14:27;;;;;;;12.43;11.00;;;13.60;99.90;;;;;;5039579;28;20354;-72
2023/05/05 03:16:55;;;;;;;16.20;11.80;;;13.50;99.90;;;;;;5057094;28;20118;-72
2023/05/05 03:19:23;;;;;;;13.75;11.93;;;13.40;99.90;;;;;;5055979;28;20359;-71
2023/05/05 03:21:53;;;;;;;15.35;11.95;;;13.40;99.90;;;;;;5040238;28;20362;-71
2023/05/05 03:24:20;;;;;;;16.02;13.52;;;13.40;99.90;;;;;;5056697;28;20060;-71
2023/05/05 03:27:06;;;;;;;14.13;12.63;;;13.30;99.90;;;;;;5055643;28;20078;-71
2023/05/05 03:29:35;;;;;;;15.77;12.80;;;13.20;99.90;;;;;;5056250;28;20086;-71
2023/05/05 03:32:03;;;;;;;15.48;13.30;;;13.20;99.90;;;;;;5057199;28;20113;-71
2023/05/05 03:34:29;;;;;;;15.68;13.27;;;13.20;99.90;;;;;;5055841;28;20033;-71
2023/05/05 03:36:56;;;;;;;14.82;13.13;;;13.20;99.90;;;;;;5055855;28;20080;-71
2023/05/05 03:39:22;;;;;;;17.90;14.63;;;13.10;99.90;;;;;;5055805;28;20047;-71
2023/05/05 03:41:49;;;;;;;18.50;16.13;;;13.10;99.90;;;;;;5055901;28;20032;-72
2023/05/05 03:44:18;;;;;;;18.63;15.88;;;13.20;99.90;;;;;;5039613;28;20124;-72
2023/05/05 03:46:43;;;;;;;18.52;16.05;;;13.20;99.90;;;;;;5055825;28;20400;-72
2023/05/05 03:49:12;;;;;;;18.15;15.27;;;13.30;99.90;;;;;;5055569;28;20304;-72
2023/05/05 03:51:40;;;;;;;19.42;14.93;;;13.30;99.90;;;;;;5055578;28;20098;-70
2023/05/05 03:54:06;;;;;;;17.60;14.23;;;13.30;99.90;;;;;;5038930;28;20309;-71
2023/05/05 03:56:32;;;;;;;17.17;14.20;;;13.20;99.90;;;;;;5055522;28;20044;-71
2023/05/05 03:58:58;;;;;;;18.40;14.52;;;13.30;99.90;;;;;;5055573;28;20036;-71
2023/05/05 04:01:24;;;;;;;16.15;14.05;;;13.20;99.90;;;;;;5055563;28;20021;-71
2023/05/05 04:03:51;;;;;;;15.35;12.85;;;13.20;99.90;;;;;;5038836;28;20436;-71
2023/05/05 04:06:17;;;;;;;15.82;14.02;;;13.20;99.90;;;;;;5038937;28;20360;-71
2023/05/05 04:08:42;;;;;;;17.38;13.13;;;13.10;99.90;;;;;;5038718;28;20064;-71
2023/05/05 04:11:08;;;;;;;15.95;13.45;;;13.10;99.90;;;;;;5055157;28;20040;-70
2023/05/05 04:13:35;;;;;;;16.48;12.88;;;13.10;99.90;;;;;;5055705;28;20037;-70
2023/05/05 04:16:02;;;;;;;15.48;13.63;;;13.00;99.90;;;;;;5058973;28;20033;-72
2023/05/05 04:18:28;;;;;;;16.45;13.57;;;13.00;99.90;;;;;;5058939;28;20037;-71
2023/05/05 04:20:54;;;;;;;19.15;14.55;;;13.00;99.90;;;;;;5059096;28;20411;-71
2023/05/05 04:23:21;;;;;;;16.50;13.57;;;13.10;99.90;;;;;;5042421;28;20112;-72
2023/05/05 04:25:48;;;;;;;16.63;13.57;;;13.10;99.90;;;;;;5059002;28;20116;-71
2023/05/05 04:28:14;;;;;;;16.65;13.68;;;13.10;99.90;;;;;;5059683;28;20448;-71
2023/05/05 04:30:40;;;;;;;17.30;14.20;;;13.00;99.90;;;;;;5058711;28;20029;-71
2023/05/05 04:33:06;;;;;;;16.88;13.65;;;13.00;99.90;;;;;;5058875;28;20021;-70
2023/05/05 04:35:32;;;;;;;18.50;14.00;;;13.00;99.90;;;;;;5058562;28;20090;-70
2023/05/05 04:37:58;;;;;;;18.42;14.65;;;13.10;99.90;;;;;;5058541;28;20104;-70
2023/05/05 04:40:25;;;;;;;19.23;14.55;;;13.10;99.90;;;;;;5059355;28;20032;-71
2023/05/05 04:42:51;;;;;;;19.77;14.65;;;13.10;99.90;;;;;;5042160;28;20048;-70
2023/05/05 04:45:17;;;;;;;19.00;14.90;;;13.10;99.90;;;;;;5058587;28;20133;-71
2023/05/05 04:47:44;;;;;;;16.75;14.93;;;13.10;99.90;;;;;;5058383;28;20060;-70
2023/05/05 04:50:10;;;;;;;19.20;14.57;;;13.10;99.90;;;;;;5058492;28;20033;-71
2023/05/05 04:52:36;;;;;;;17.25;14.30;;;13.10;99.90;;;;;;5058553;28;20044;-71
2023/05/05 04:55:03;;;;;;;16.95;14.50;;;13.20;99.90;;;;;;5058329;28;20128;-72
2023/05/05 04:57:29;;;;;;;19.15;15.20;;;13.20;99.90;;;;;;5058333;28;20040;-71
2023/05/05 04:59:58;;;;;;;16.00;14.30;;;13.30;99.90;;;;;;5058261;28;20339;-71
2023/05/05 05:02:25;;;;;;;19.10;15.25;;;13.40;99.90;;;;;;5057999;28;20086;-72
2023/05/05 05:04:52;;;;;;;20.17;15.02;;;13.40;99.90;;;;;;5059004;28;20423;-72
2023/05/05 05:07:19;;;;;;;16.75;14.18;;;13.40;99.90;;;;;;5058324;28;20049;-72
2023/05/05 05:09:45;;;;;;;19.10;14.13;;;13.50;99.90;;;;;;5041470;28;20036;-72
2023/05/05 05:12:11;;;;;;;17.30;13.50;;;13.50;99.90;;;;;;5041640;28;20079;-72
2023/05/05 05:14:37;;;;;;;17.60;13.27;;;13.50;99.90;;;;;;5058901;28;20065;-71
2023/05/05 05:17:04;;;;;;;17.30;14.10;;;13.60;99.90;;;;;;5041233;28;20025;-72
2023/05/05 05:19:30;;;;;;;18.58;15.35;;;13.50;99.90;;;;;;5058028;28;20090;-73
2023/05/05 05:21:56;;;;;;;19.10;15.07;;;13.60;99.90;;;;;;5058639;28;20033;-72
2023/05/05 05:24:23;;;;;;;17.83;15.77;;;13.70;99.90;;;;;;5058012;28;20028;-71
2023/05/05 05:26:48;;;;;;;19.38;14.63;;;13.70;99.90;;;;;;5059804;28;20037;-74
2023/05/05 05:29:14;;;;;;;17.38;13.90;;;13.70;99.90;;;;;;5060732;28;20069;-74
2023/05/05 05:31:40;;;;;;;15.73;13.10;;;13.70;99.90;;;;;;5060047;28;20427;-73
2023/05/05 05:34:06;;;;;;;16.38;12.95;;;13.80;99.90;;;;;;5059680;28;20435;-73
2023/05/05 05:36:32;;;;;;;17.00;13.93;;;13.90;99.90;;;;;;5059305;28;20033;-72
2023/05/05 05:38:58;;;;;;;11.82;9.95;;;14.00;99.90;;;;;;5058149;28;20120;-65
2023/05/05 05:41:25;;;;;;;18.08;12.80;;;14.10;99.90;;;;;;5058282;28;20025;-72
2023/05/05 05:43:50;;;;;;;14.88;12.32;;;14.10;99.90;;;;;;5058428;28;20045;-72
2023/05/05 05:46:17;;;;;;;20.90;12.95;;;14.20;99.90;;;;;;5057564;28;20037;-68
2023/05/05 05:48:43;;;;;;;13.60;11.77;;;14.30;99.90;;;;;;5058132;28;20068;-73
2023/05/05 05:51:09;;;;;;;18.63;11.80;;;14.30;99.90;;;;;;5058839;28;20312;-72
2023/05/05 05:53:35;;;;;;;12.10;10.82;;;14.40;99.90;;;;;;5058749;28;20029;-73
2023/05/05 05:56:00;;;;;;;13.25;11.85;;;14.50;99.90;;;;;;5058043;28;20066;-73
2023/05/05 05:58:26;;;;;;;13.68;11.05;;;14.60;99.90;;;;;;5057281;28;20063;-73
2023/05/05 06:00:52;;;;;;;11.50;10.30;;;14.80;99.90;;;;;;5057446;28;20138;-73
2023/05/05 06:03:18;;;;;;;10.65;9.55;;;14.90;99.90;;;;;;5056839;28;20061;-71
2023/05/05 06:05:47;;;;;;;13.10;10.65;;;14.80;99.90;;;;;;5040954;28;20097;-70
2023/05/05 06:08:14;;;;;;;14.23;11.15;;;14.50;99.90;;;;;;5056831;28;20047;-70
2023/05/05 06:10:46;;;;;;;11.25;10.18;;;14.40;99.90;;;;;;5041372;28;20025;-74
2023/05/05 06:13:15;;;;;;;11.90;10.10;;;14.50;99.90;;;;;;5024739;28;20032;-75
2023/05/05 06:15:44;;;;;;;11.10;8.95;;;14.80;99.90;;;;;;5057425;28;20040;-73
2023/05/05 06:18:12;;;;;;;11.88;8.30;;;15.00;99.90;;;;;;5057989;28;20182;-75
2023/05/05 06:20:38;;;;;;;8.50;7.60;;;15.20;99.90;;;;;;5057186;28;20164;-74
2023/05/05 06:23:04;;;;;;;9.77;7.18;;;15.40;99.90;;;;;;5057847;28;20033;-75
2023/05/05 06:25:32;;;;;;;9.70;7.50;;;15.50;99.90;;;;;;5057007;28;20056;-70
2023/05/05 06:27:58;;;;;;;15.02;7.30;;;15.60;99.90;;;;;;5057544;28;20028;-67
2023/05/05 06:30:25;;;;;;;7.85;7.05;;;15.50;99.90;;;;;;5057459;28;20163;-71
2023/05/05 06:32:53;;;;;;;9.23;6.68;;;15.70;99.90;;;;;;5057838;28;20065;-70
2023/05/05 06:35:19;;;;;;;10.57;6.60;;;15.70;99.90;;;;;;5057492;28;20360;-74
2023/05/05 06:37:45;;;;;;;10.75;6.78;;;15.80;99.90;;;;;;5056687;28;20041;-69
2023/05/05 06:40:11;;;;;;;9.27;6.65;;;16.00;99.90;;;;;;5057131;28;20370;-70
2023/05/05 06:42:37;;;;;;;8.73;6.70;;;16.30;99.90;;;;;;5056665;28;20115;-76
2023/05/05 06:45:07;;;;;;;8.68;6.10;;;16.30;99.90;;;;;;5056690;28;20037;-74
2023/05/05 06:47:33;;;;;;;7.78;6.32;;;16.30;99.90;;;;;;5056453;28;20041;-77
2023/05/05 06:49:59;;;;;;;10.48;6.25;;;16.50;99.90;;;;;;5057196;28;20131;-73
2023/05/05 06:52:25;;;;;;;7.63;6.03;;;16.60;99.90;;;;;;5056558;28;20125;-63
2023/05/05 06:54:50;;;;;;;8.23;5.50;;;16.60;99.90;;;;;;5056802;28;20076;-62
2023/05/05 06:57:16;;;;;;;6.20;5.22;;;16.60;99.90;;;;;;5056750;28;20064;-61
2023/05/05 06:59:42;;;;;;;7.40;5.25;;;16.60;99.90;;;;;;5056841;28;20044;-64
2023/05/05 07:02:08;;;;;;;7.63;5.50;;;16.70;99.90;;;;;;5056034;28;20040;-62
2023/05/05 07:04:34;;;;;;;9.05;5.28;;;17.00;99.90;;;;;;5056645;28;20056;-62
2023/05/05 07:07:00;;;;;;;7.15;4.95;;;17.20;99.10;;;;;;5056706;28;20301;-65
2023/05/05 07:09:26;;;;;;;7.00;4.93;;;17.40;98.10;;;;;;5056732;28;20028;-71
2023/05/05 07:11:52;;;;;;;7.47;4.22;;;17.70;96.50;;;;;;5057358;28;20044;-71
2023/05/05 07:14:17;;;;;;;7.00;4.07;;;17.90;93.30;;;;;;5039875;28;20044;-69
2023/05/05 07:16:43;;;;;;;5.32;3.28;;;18.30;91.00;;;;;;5056656;28;20291;-67
2023/05/05 07:19:09;;;;;;;5.18;3.25;;;18.00;80.40;;;;;;5055880;28;20304;-70
2023/05/05 07:21:35;;;;;;;5.25;3.50;;;18.00;90.20;;;;;;5056624;28;20040;-67
2023/05/05 07:24:04;;;;;;;5.60;3.03;;;18.10;88.30;;;;;;5056817;28;20033;-64
2023/05/05 07:26:31;;;;;;;6.53;3.05;;;17.60;89.00;;;;;;5055766;28;20095;-65
2023/05/05 07:28:57;;;;;;;6.70;3.63;;;17.40;94.00;;;;;;5055661;28;20025;-63
2023/05/05 07:31:24;;;;;;;7.63;2.90;;;17.70;93.30;;;;;;5056616;28;20295;-64
2023/05/05 07:33:50;;;;;;;5.70;3.55;;;18.10;85.20;;;;;;5056227;28;20044;-62
2023/05/05 07:36:17;;;;;;;3.70;2.92;;;18.40;80.90;;;;;;5056402;28;20032;-62
2023/05/05 07:38:43;;;;;;;5.43;3.40;;;18.90;66.80;;;;;;5055725;28;20029;-63
2023/05/05 07:41:10;;;;;;;7.07;3.25;;;19.10;62.20;;;;;;5056548;28;20040;-63
2023/05/05 07:43:37;;;;;;;6.68;3.35;;;19.30;59.00;;;;;;5056384;28;20083;-63
2023/05/05 07:46:03;;;;;;;7.28;3.35;;;18.30;74.70;;;;;;5056478;28;20028;-63
2023/05/05 07:48:29;;;;;;;7.75;3.58;;;18.20;82.70;;;;;;5055892;28;20025;-65
2023/05/05 07:50:55;;;;;;;4.97;2.97;;;18.50;78.40;;;;;;5060884;28;20044;-64
2023/05/05 07:53:20;;;;;;;4.57;2.55;;;18.90;64.60;;;;;;5059468;28;20068;-62
2023/05/05 07:55:46;;;;;;;5.85;2.50;;;18.90;59.80;;;;;;5059287;28;20400;-61
2023/05/05 07:58:12;;;;;;;6.38;2.75;;;18.30;73.60;;;;;;5059927;28;20024;-64
2023/05/05 08:00:38;;;;;;;4.68;2.83;;;18.20;69.90;;;;;;5060369;28;20053;-63
2023/05/05 08:03:04;;;;;;;4.88;2.70;;;18.00;83.20;;;;;;5059885;28;20082;-62
2023/05/05 08:05:30;;;;;;;8.57;2.75;;;18.30;76.50;;;;;;5060437;28;20060;-61
2023/05/05 08:07:56;;;;;;;6.22;2.50;;;18.50;72.20;;;;;;5058952;28;20408;-61
2023/05/05 08:10:22;;;;;;;4.25;2.33;;;18.30;74.50;;;;;;5059783;28;20040;-61
2023/05/05 08:12:48;;;;;;;5.15;3.30;;;18.30;77.50;;;;;;5059120;28;20044;-63
2023/05/05 08:15:13;;;;;;;6.57;3.50;;;18.00;79.40;;;;;;5059664;28;20113;-62
2023/05/05 08:17:57;;;;;;;7.20;2.92;;;17.50;91.00;;;;;;5059722;28;20404;-67
2023/05/05 08:20:27;;;;;;;4.15;3.03;;;17.40;92.50;;;;;;5059646;28;20184;-61
2023/05/05 08:22:53;;;;;;;5.38;3.17;;;17.40;93.20;;;;;;5060105;28;20269;-61
2023/05/05 08:25:19;;;;;;;5.97;3.53;;;17.70;92.50;;;;;;5059584;28;20029;-61
2023/05/05 08:27:45;;;;;;;6.95;4.00;;;17.80;90.60;;;;;;5059454;28;20033;-62
2023/05/05 08:30:11;;;;;;;3.90;3.13;;;17.70;90.90;;;;;;5060115;28;20040;-61
2023/05/05 08:32:37;;;;;;;9.30;4.00;;;17.60;93.20;;;;;;5059608;28;20029;-61
2023/05/05 08:35:05;;;;;;;7.15;3.50;;;17.80;93.70;;;;;;5058606;28;20423;-62
2023/05/05 08:37:31;;;;;;;6.45;3.65;;;18.10;89.60;;;;;;5059540;28;20403;-61
2023/05/05 08:39:57;;;;;;;9.13;3.92;;;18.20;80.20;;;;;;5059332;28;20040;-62
2023/05/05 08:42:23;;;;;;;6.63;3.20;;;18.30;82.40;;;;;;5059599;28;20045;-61
2023/05/05 08:44:49;;;;;;;6.65;3.33;;;18.40;84.10;;;;;;5058594;28;20075;-61
2023/05/05 08:47:16;;;;;;;7.07;3.08;;;18.40;88.40;;;;;;5059043;28;20112;-61
2023/05/05 08:49:45;;;;;;;6.20;3.30;;;18.40;84.20;;;;;;5059058;28;20032;-64
2023/05/05 08:52:21;;;;;;;8.93;3.90;;;18.00;89.60;;;;;;5059375;28;20064;-61
2023/05/05 08:54:53;;;;;;;5.57;3.42;;;17.70;95.80;;;;;;5074747;28;20289;-61
2023/05/05 08:57:27;;;;;;;9.38;3.60;;;17.50;97.50;;;;;;5059459;28;20321;-62
2023/05/05 08:59:54;;;;;;;8.98;3.55;;;17.10;99.90;;;;;;5058408;28;20112;-63
2023/05/05 09:02:27;;;;;;;6.70;3.38;;;17.20;99.90;;;;;;5058738;28;20040;-66
2023/05/05 09:04:53;;;;;;;6.30;3.25;;;17.50;99.90;;;;;;5057959;28;20049;-66
2023/05/05 09:07:19;;;;;;;4.35;3.10;;;17.70;99.60;;;;;;5058756;28;20110;-65
2023/05/05 09:09:45;;;;;;;5.85;3.30;;;17.90;98.70;;;;;;5058720;28;20029;-64
2023/05/05 09:12:11;;;;;;;5.22;3.40;;;18.20;98.80;;;;;;5057881;28;20037;-65
2023/05/05 09:14:36;;;;;;;4.70;3.20;;;18.00;96.70;;;;;;5058626;28;20462;-65
2023/05/05 09:17:02;;;;;;;4.25;3.50;;;18.10;97.60;;;;;;5059014;28;20411;-65
2023/05/05 09:19:28;;;;;;;7.47;3.92;;;18.00;99.20;;;;;;5041303;28;20025;-67
2023/05/05 09:21:54;;;;;;;8.25;4.20;;;17.60;99.90;;;;;;5058426;28;20033;-64
2023/05/05 09:24:20;;;;;;;9.82;4.38;;;17.10;99.90;;;;;;5058505;28;20029;-62
2023/05/05 09:26:47;;;;;;;8.23;4.65;;;16.90;99.90;;;;;;5058592;28;20124;-62
2023/05/05 09:29:20;;;;;;;7.88;4.28;;;16.70;99.90;;;;;;5058316;28;20029;-63
2023/05/05 09:32:04;;;;;;;6.90;4.40;;;16.30;99.90;;;;;;5057559;28;20392;-63
2023/05/05 09:34:32;;;;;;;9.55;4.90;;;16.00;99.90;;;;;;5057486;28;20043;-62
2023/05/05 09:36:57;;;;;;;7.97;5.32;;;15.80;99.90;;;;;;5057286;28;20048;-63
2023/05/05 09:39:23;;;;;;;7.43;5.47;;;15.70;99.90;;;;;;5058119;28;20029;-62
2023/05/05 09:41:49;;;;;;;11.57;5.40;;;15.70;99.90;;;;;;5058191;28;20032;-60
2023/05/05 09:44:15;;;;;;;8.18;4.13;;;15.90;99.90;;;;;;5058185;28;20059;-59
2023/05/05 09:46:51;;;;;;;8.82;3.30;;;16.00;99.90;;;;;;5057404;28;20415;-62
2023/05/05 09:49:22;;;;;;;2.78;0.90;;;16.10;99.90;;;;;;5058041;28;20103;-62
2023/05/05 09:51:48;;;;;;;3.58;0.60;;;16.00;99.90;;;;;;5073808;28;20033;-62
2023/05/05 09:54:28;;;;;;;1.45;0.70;;;15.80;99.60;;;;;;5057766;28;20021;-62
2023/05/05 09:56:56;;;;;;;2.00;0.50;;;15.60;99.20;;;;;;5057905;28;20029;-64
2023/05/05 09:59:23;;;;;;;2.67;1.10;;;15.30;99.40;;;;;;5057758;28;20037;-63
2023/05/05 10:01:50;;;;;;;2.95;0.90;;;15.20;99.90;;;;;;5057818;28;20348;-64
2023/05/05 10:04:27;;;;;;;0.70;0.60;;;15.20;99.90;;;;;;5057545;28;20374;-66
2023/05/05 10:06:54;;;;;;;1.83;0.63;;;15.20;99.90;;;;;;5057052;28;20037;-65
2023/05/05 10:09:20;;;;;;;1.58;0.50;;;15.40;99.90;;;;;;5056966;28;20025;-67
2023/05/05 10:11:46;;;;;;;1.13;0.50;;;15.60;99.90;;;;;;5056879;28;20037;-66
2023/05/05 10:14:16;;;;;;;2.13;0.60;;;16.00;99.90;;;;;;5056840;28;20047;-65
2023/05/05 10:16:48;;;;;;;0.93;0.43;;;16.50;95.10;;;;;;5058176;28;20448;-64
2023/05/05 10:19:16;;;;;;;1.45;0.50;;;16.70;91.80;;;;;;5057325;28;20063;-64
2023/05/05 10:21:49;;;;;;;2.05;0.35;;;16.90;92.70;;;;;;5057927;28;20356;-64
2023/05/05 10:24:33;;;;;;;2.42;0.50;;;17.20;95.70;;;;;;5057286;28;20044;-66
2023/05/05 10:27:02;;;;;;;3.53;0.50;;;17.60;94.40;;;;;;5057109;28;20051;-68
2023/05/05 10:29:38;;;;;;;1.38;0.45;;;17.60;82.40;;;;;;5057076;28;20384;-64
2023/05/05 10:32:11;;;;;;;1.58;0.57;;;17.60;91.30;;;;;;5057175;28;20029;-65
2023/05/05 10:34:48;;;;;;;0.90;0.65;;;18.40;89.60;;;;;;5057061;28;20310;-65
2023/05/05 10:37:16;;;;;;;3.28;0.85;;;18.40;74.60;;;;;;5057120;28;20155;-62
2023/05/05 10:39:44;;;;;;;2.80;0.98;;;18.50;72.30;;;;;;5057124;28;20040;-61
2023/05/05 10:42:13;;;;;;;1.58;1.08;;;18.70;81.80;;;;;;5057057;28;20122;-63
2023/05/05 10:44:40;;;;;;;5.50;1.92;;;18.20;84.50;;;;;;5057112;28;20112;-62
2023/05/05 10:47:07;;;;;;;4.55;2.63;;;18.20;87.70;;;;;;5057092;28;20039;-64
2023/05/05 10:49:52;;;;;;;5.75;3.33;;;18.50;90.30;;;;;;5039820;28;20052;-64
2023/05/05 10:52:36;;;;;;;6.93;3.80;;;18.10;93.40;;;;;;5056934;28;20392;-63
2023/05/05 10:55:20;;;;;;;10.50;4.63;;;17.90;96.20;;;;;;5056975;28;20033;-64
2023/05/05 10:57:51;;;;;;;4.68;4.03;;;18.60;97.10;;;;;;5072844;28;20044;-66
2023/05/05 11:00:38;;;;;;;6.30;4.90;;;18.90;93.90;;;;;;5056819;28;20025;-64
2023/05/05 11:03:16;;;;;;;5.78;5.20;;;19.20;89.80;;;;;;5056633;28;20332;-64
2023/05/05 11:06:06;;;;;;;9.02;5.32;;;19.10;93.30;;;;;;5056985;28;20419;-67
2023/05/05 11:08:40;;;;;;;6.43;5.50;;;19.50;70.90;;;;;;5056679;28;20032;-60
2023/05/05 11:11:09;;;;;;;7.05;5.65;;;19.20;91.50;;;;;;5056077;28;20143;-63
2023/05/05 11:13:36;;;;;;;7.10;5.70;;;19.30;93.30;;;;;;5056579;28;20025;-64
2023/05/05 11:16:02;;;;;;;6.72;4.70;;;19.10;92.60;;;;;;5055956;28;20029;-61
2023/05/05 11:18:29;;;;;;;9.93;5.07;;;19.10;90.10;;;;;;5056801;28;20033;-62
2023/05/05 11:20:58;;;;;;;7.40;4.50;;;18.70;91.10;;;;;;5055869;28;20094;-61
2023/05/05 11:23:27;;;;;;;8.95;4.65;;;18.60;93.00;;;;;;5058547;28;20037;-70
2023/05/05 11:25:56;;;;;;;6.78;4.60;;;18.40;89.80;;;;;;5060819;28;20307;-61
2023/05/05 11:28:24;;;;;;;10.38;5.05;;;18.00;95.30;;;;;;5060952;28;20028;-67
2023/05/05 11:30:58;;;;;;;5.90;4.90;;;17.80;97.00;;;;;;5061346;28;20056;-60
2023/05/05 11:33:39;;;;;;;9.23;5.40;;;17.70;98.40;;;;;;5060638;28;20336;-62
2023/05/05 11:36:10;;;;;;;8.38;5.72;;;18.20;98.10;;;;;;5060640;28;20037;-61
2023/05/05 11:38:55;;;;;;;8.18;4.85;;;18.70;95.70;;;;;;5060972;28;20032;-63
2023/05/05 11:41:32;;;;;;;9.30;5.32;;;19.10;91.10;;;;;;5059773;28;20021;-59
2023/05/05 11:44:32;;;;;;;6.95;4.90;;;19.60;80.90;;;;;;5060404;28;20399;-61
2023/05/05 11:47:00;;;;;;;7.72;4.75;;;19.80;62.50;;;;;;5059543;28;20033;-62
2023/05/05 11:49:36;;;;;;;7.25;4.65;;;20.90;41.60;;;;;;5060516;28;20072;-59
2023/05/05 11:52:03;;;;;;;8.32;4.72;;;21.40;14.00;;;;;;5060725;28;20392;-62
2023/05/05 11:54:30;;;;;;;7.30;4.72;;;20.50;19.10;;;;;;5060061;28;20029;-64
2023/05/05 11:57:03;;;;;;;14.20;6.28;;;20.20;25.50;;;;;;5060062;28;20041;-62
2023/05/05 11:59:47;;;;;;;8.40;2.78;;;20.40;18.20;;;;;;5059591;28;20281;-62
2023/05/05 12:02:17;;;;;;;9.45;2.78;;;20.60;1.00;;;;;;5059954;28;20166;-64
2023/05/05 12:04:44;;;;;;;4.68;2.30;;;20.50;1.00;;;;;;5059203;28;20428;-64
2023/05/05 12:07:18;;;;;;;10.18;2.83;;;20.40;1.00;;;;;;5059916;28;20078;-73
2023/05/05 12:09:45;;;;;;;4.15;2.13;;;20.30;1.00;;;;;;5060026;28;20403;-63
2023/05/05 12:12:12;;;;;;;3.47;1.75;;;20.10;1.00;;;;;;5059755;28;20037;-64
2023/05/05 12:14:51;;;;;;;4.15;1.92;;;20.00;1.00;;;;;;5059727;28;20039;-67
2023/05/05 12:17:22;;;;;;;4.97;1.67;;;20.10;1.00;;;;;;5059656;28;20046;-64
2023/05/05 12:19:52;;;;;;;5.35;2.13;;;20.10;1.00;;;;;;5058853;28;20308;-63
2023/05/05 12:22:20;;;;;;;6.05;2.25;;;20.30;1.00;;;;;;5059587;28;20277;-61
2023/05/05 12:24:57;;;;;;;3.42;1.70;;;20.30;1.00;;;;;;5058757;28;20128;-61
2023/05/05 12:27:25;;;;;;;6.57;1.98;;;20.50;1.00;;;;;;5059523;28;20333;-62
2023/05/05 12:29:53;;;;;;;4.85;2.25;;;20.80;1.00;;;;;;5059535;28;20045;-62
2023/05/05 12:32:28;;;;;;;6.70;2.47;;;21.10;1.00;;;;;;5059462;28;20484;-63
2023/05/05 12:34:56;;;;;;;6.20;2.00;;;21.70;1.00;;;;;;5058549;28;20029;-61
2023/05/05 12:37:26;;;;;;;5.53;1.80;;;22.10;1.00;;;;;;5058512;28;20021;-62
2023/05/05 12:39:55;;;;;;;2.38;2.10;;;22.70;1.00;;;;;;5059349;28;20039;-62
2023/05/05 12:42:22;;;;;;;3.42;2.22;;;23.30;1.00;;;;;;5059634;28;20474;-61
2023/05/05 12:44:48;;;;;;;7.07;2.63;;;23.60;1.00;;;;;;5058391;28;20037;-60
2023/05/05 12:47:28;;;;;;;4.50;2.60;;;23.50;1.00;;;;;;5059538;28;20025;-61
2023/05/05 12:49:53;;;;;;;4.72;2.78;;;23.80;1.00;;;;;;5059284;28;20051;-61
2023/05/05 12:52:19;;;;;;;5.82;2.95;;;24.30;1.00;;;;;;5059009;28;20108;-61